Time;durP1;ratioP1;P1;durP2;ratioP2;P2;SDS_P1;SDS_P2;PMS_P1;PMS_P2;Temp;Humidity;BMP_temperature;BMP_pressure;BME280_temperature;BME280_humidity;BME280_pressure;Samples;Min_cycle;Max_cycle;Signal;HPM_P1;HPM_P2
2021/05/25 00:01:47;;;;;;;2.75;1.10;;;9.20;99.90;;;10.40;88.52;99877.34;4956797;29;20097;-84
2021/05/25 00:04:13;;;;;;;1.80;1.10;;;9.20;99.90;;;10.45;87.93;99880.59;4940863;29;20058;-83
2021/05/25 00:06:39;;;;;;;4.63;0.90;;;9.10;99.90;;;10.41;86.79;99876.94;4939481;29;20488;-86
2021/05/25 00:09:06;;;;;;;1.27;1.00;;;9.10;99.90;;;10.35;86.71;99880.44;4940244;29;20047;-84
2021/05/25 00:11:32;;;;;;;1.23;0.80;;;9.10;99.90;;;10.42;86.32;99886.13;4940971;29;20070;-81
2021/05/25 00:13:58;;;;;;;2.42;0.90;;;9.10;99.90;;;10.38;85.98;99882.47;4938823;28;20028;-81
2021/05/25 03:39:38;;;;;;;2.22;0.60;;;8.80;99.90;;;10.25;76.73;99965.59;4879693;29;20078;-87
2021/05/25 03:43:47;;;;;;;;;;;8.90;99.90;;;10.24;77.56;99971.56;4825830;29;20043;-86
2021/05/25 03:47:20;;;;;;;2.58;0.40;;;8.90;99.90;;;10.05;78.39;99967.59;4807323;29;19913;-87
2021/05/25 03:51:32;;;;;;;2.80;0.80;;;8.90;99.90;;;9.97;79.56;99981.81;4762975;30;20067;-89
2021/05/25 03:55:06;;;;;;;1.60;0.68;;;8.80;99.90;;;9.87;79.78;99976.81;4807998;29;20043;-85
2021/05/25 04:23:23;;;;;;;1.52;0.60;;;8.30;99.90;;;9.69;83.50;99964.53;4895052;29;20544;-83
2021/05/25 04:31:29;;;;;;;1.75;0.65;;;8.40;99.90;;;9.62;82.72;99989.47;4845673;29;20098;-84
2021/05/25 05:21:57;;;;;;;3.60;0.85;;;8.40;99.90;;;9.49;86.01;100013.91;4885011;29;20136;-87
2021/05/25 05:48:15;;;;;;;1.45;0.73;;;8.70;99.90;;;9.89;85.88;100013.50;4884476;29;20488;-89
2021/05/25 06:01:49;;;;;;;2.30;0.70;;;9.00;99.90;;;10.04;84.36;100018.22;4873827;29;20113;-85
2021/05/25 06:15:06;;;;;;;1.50;0.75;;;9.00;99.90;;;10.18;83.88;100029.66;4885827;29;20060;-87
2021/05/25 06:17:32;;;;;;;2.93;1.20;;;9.00;99.90;;;10.25;84.17;100028.97;4865049;29;20505;-89
2021/05/25 06:19:59;;;;;;;2.72;0.90;;;9.00;99.90;;;10.10;84.54;100018.69;4863608;29;20048;-88
2021/05/25 06:22:25;;;;;;;2.35;0.80;;;9.00;99.90;;;10.12;85.30;100021.91;4864791;29;20225;-82
2021/05/25 06:24:51;;;;;;;1.70;0.98;;;9.00;99.90;;;10.10;85.84;100019.50;4882616;29;20030;-86
2021/05/25 06:27:17;;;;;;;3.45;1.10;;;9.00;99.90;;;10.14;85.74;100026.00;4870385;29;20542;-87
2021/05/25 06:29:46;;;;;;;2.53;1.20;;;9.00;99.90;;;10.34;86.60;100023.97;4863409;29;20038;-89
2021/05/25 06:32:14;;;;;;;6.50;1.00;;;9.20;99.90;;;10.70;83.59;100023.38;4864366;29;20055;-87
2021/05/25 06:34:40;;;;;;;2.33;1.00;;;9.50;99.90;;;10.90;83.16;100026.91;4863377;29;20041;-89
2021/05/25 06:37:06;;;;;;;1.90;1.00;;;9.60;99.90;;;10.86;84.63;100020.44;4863005;29;20459;-88
2021/05/25 06:39:32;;;;;;;2.13;1.10;;;9.70;99.90;;;10.87;84.18;100027.66;4862258;29;20026;-86
2021/05/25 06:41:59;;;;;;;1.40;1.02;;;9.60;99.90;;;10.32;84.87;100026.31;4861614;29;20058;-87
2021/05/25 06:44:25;;;;;;;2.55;1.27;;;9.50;99.90;;;10.44;84.65;100026.94;4862088;29;20093;-88
2021/05/25 06:46:51;;;;;;;4.38;1.40;;;9.40;99.90;;;10.72;84.69;100021.06;4860621;29;20072;-88
2021/05/25 06:49:17;;;;;;;3.67;1.38;;;9.40;99.90;;;10.88;83.25;100030.09;4859667;29;20090;-88
2021/05/25 06:51:44;;;;;;;4.47;1.40;;;9.40;99.90;;;10.61;83.75;100028.44;4860439;29;20033;-90
2021/05/25 06:54:12;;;;;;;5.32;1.52;;;9.40;99.90;;;10.54;85.10;100022.72;4861422;29;20029;-86
2021/05/25 06:56:38;;;;;;;1.85;1.20;;;9.40;99.90;;;10.88;83.14;100020.91;4861465;29;20037;-86
2021/05/25 06:59:05;;;;;;;1.92;1.05;;;9.50;99.90;;;11.00;82.60;100027.09;4863452;29;20025;-87
2021/05/25 07:01:31;;;;;;;1.02;0.82;;;9.50;99.90;;;10.93;83.26;100029.75;4862484;29;20098;-86
2021/05/25 07:03:57;;;;;;;1.85;0.80;;;9.60;99.90;;;11.48;82.05;100025.38;4863995;29;20065;-84
2021/05/25 07:06:26;;;;;;;2.92;1.05;;;10.00;99.90;;;11.87;78.95;100042.69;4862366;29;20074;-88
2021/05/25 07:08:52;;;;;;;3.58;1.00;;;10.20;99.90;;;11.81;78.79;100032.22;4860818;29;20026;-87
2021/05/25 07:11:20;;;;;;;3.58;1.10;;;10.50;99.90;;;11.96;77.91;100020.00;4859881;29;20061;-87
2021/05/25 07:13:47;;;;;;;0.95;0.60;;;10.70;99.90;;;12.01;77.33;100033.63;4859973;29;20037;-87
2021/05/25 07:16:13;;;;;;;2.78;0.93;;;10.70;99.90;;;11.85;76.49;100033.03;4860724;29;20037;-87
2021/05/25 07:18:42;;;;;;;1.73;0.60;;;10.60;99.90;;;11.91;75.23;100034.34;4861659;29;20030;-87
2021/05/25 07:21:09;;;;;;;1.00;0.90;;;10.60;99.90;;;11.59;76.06;100033.91;4861395;29;20100;-91
2021/05/25 07:23:36;;;;;;;4.57;0.80;;;10.50;99.90;;;11.48;78.05;100055.31;4862774;29;20068;-81
2021/05/25 07:26:04;;;;;;;1.13;0.60;;;10.30;99.90;;;11.04;79.20;100033.50;4862372;29;20086;-84
2021/05/25 07:28:32;;;;;;;0.70;0.50;;;10.00;99.90;;;10.85;80.03;100041.97;4863339;29;20064;-84
2021/05/25 07:31:16;;;;;;;2.88;0.75;;;9.80;99.90;;;10.61;81.61;100047.16;4864971;29;20049;-84
2021/05/25 07:34:44;;;;;;;1.10;0.60;;;9.50;99.90;;;10.25;83.49;100042.94;4871774;29;20072;-88
2021/05/25 07:38:09;;;;;;;1.90;0.60;;;9.20;99.90;;;10.29;83.57;100054.97;4855182;29;20056;-85
2021/05/25 07:40:42;;;;;;;2.20;0.98;;;9.00;99.90;;;10.06;85.15;100058.50;4865263;29;20139;-82
2021/05/25 07:43:22;;;;;;;1.70;0.88;;;8.80;99.90;;;9.88;86.09;100070.50;4865042;29;20041;-80
2021/05/25 07:46:23;;;;;;;1.63;0.52;;;8.70;99.90;;;9.64;85.10;100066.00;4865322;29;20508;-86
2021/05/25 07:49:28;;;;;;;1.45;0.30;;;8.50;99.90;;;9.51;85.78;100056.97;4864007;29;20042;-84
2021/05/25 07:52:43;;;;;;;1.35;0.40;;;8.40;99.90;;;9.49;86.53;100062.09;4863728;29;20025;-85
2021/05/25 07:55:51;;;;;;;1.05;0.30;;;8.30;99.90;;;9.49;86.23;100059.31;4874780;29;20025;-83
2021/05/25 08:00:25;;;;;;;2.30;0.30;;;8.20;99.90;;;9.42;86.78;100067.53;4862471;29;20060;-87
2021/05/25 08:03:28;;;;;;;2.17;0.40;;;8.20;99.90;;;9.60;86.95;100062.31;4883715;29;20477;-85
2021/05/25 08:09:53;;;;;;;1.45;0.90;;;8.60;99.90;;;10.61;86.25;100077.88;4881356;29;20037;-88
2021/05/25 08:13:14;;;;;;;1.40;0.50;;;9.00;99.90;;;11.10;83.09;100087.13;4892891;29;20041;-87
2021/05/25 08:16:03;;;;;;;4.18;0.77;;;9.40;99.90;;;11.43;82.03;100078.03;4885565;29;20061;-88
2021/05/25 08:22:43;;;;;;;0.88;0.43;;;9.90;99.90;;;11.63;80.28;100094.28;4895412;29;20412;-86
2021/05/25 08:25:27;;;;;;;1.17;0.80;;;10.00;99.90;;;11.32;82.08;100083.47;4890389;29;20037;-87
2021/05/25 08:29:31;;;;;;;;;;;;;;;;;;;;;
2021/05/25 08:32:41;;;;;;;1.90;0.90;;;9.80;99.90;;;10.96;83.77;100090.47;4889067;29;20096;-87
2021/05/25 08:36:16;;;;;;;2.15;0.80;;;9.70;99.90;;;10.29;85.66;100080.91;4869149;29;20045;-86
2021/05/25 08:39:21;;;;;;;;;;;;;;;;;;;;;
2021/05/25 08:46:45;;;;;;;2.30;1.00;;;9.00;99.90;;;10.87;85.43;100103.91;4856542;29;20091;-84
2021/05/25 08:50:03;;;;;;;2.50;1.38;;;9.30;99.90;;;11.82;84.46;100117.75;4848091;29;20101;-82
2021/05/25 08:53:48;;;;;;;1.55;1.30;;;9.90;99.90;;;12.32;81.45;100122.78;4847114;29;20093;-85
2021/05/25 08:56:45;;;;;;;3.70;1.65;;;10.80;99.90;;;13.94;75.37;100125.34;4886889;29;20049;-86
2021/05/25 08:59:33;;;;;;;1.80;1.50;;;12.00;99.90;;;14.32;72.15;100123.94;4887114;29;20041;-85
2021/05/25 09:02:49;;;;;;;2.08;1.52;;;12.40;99.90;;;13.82;73.83;100128.50;4907434;29;20040;-85
2021/05/25 09:07:21;;;;;;;1.60;1.50;;;12.20;99.90;;;14.11;74.61;100131.06;4908113;29;20037;-82
2021/05/25 09:14:25;;;;;;;2.00;1.80;;;11.90;99.90;;;13.18;75.27;100128.06;4841980;29;20093;-87
2021/05/25 09:22:33;;;;;;;2.70;1.92;;;11.90;99.90;;;13.44;73.18;100139.09;4825949;29;20057;-86
2021/05/25 09:26:53;;;;;;;5.18;2.13;;;12.10;99.90;;;13.33;74.51;100143.81;4865162;29;20026;-83
2021/05/25 09:30:16;;;;;;;2.42;1.98;;;11.80;99.90;;;12.87;74.90;100145.38;4790546;29;20504;-84
2021/05/25 09:33:38;;;;;;;2.63;1.52;;;11.50;99.90;;;13.06;75.95;100139.56;4790443;29;20043;-86
2021/05/25 09:44:52;;;;;;;4.88;2.10;;;11.80;99.90;;;13.50;72.94;100145.94;4836913;29;20030;-87
2021/05/25 09:51:54;;;;;;;4.82;2.47;;;12.20;99.90;;;15.13;68.22;100143.78;4868721;29;20061;-87
2021/05/25 09:55:49;;;;;;;2.50;2.20;;;13.30;99.90;;;15.50;65.33;100146.25;4847353;29;20049;-85
2021/05/25 12:21:29;;;;;;;4.82;1.40;;;10.20;99.90;;;12.32;81.83;100290.00;4923208;29;20162;-85
2021/05/25 12:23:55;;;;;;;2.10;1.20;;;10.70;99.90;;;12.86;78.57;100292.31;4930277;29;20039;-88
2021/05/25 12:26:23;;;;;;;3.08;1.90;;;11.30;99.90;;;13.38;77.19;100294.13;4922627;29;20496;-87
2021/05/25 12:28:54;;;;;;;9.95;1.70;;;11.90;99.90;;;14.04;76.45;100285.47;4921254;29;20140;-85
2021/05/25 12:31:27;;;;;;;2.22;1.40;;;12.40;99.90;;;13.94;74.88;100280.56;4920912;29;20044;-87
2021/05/25 12:33:54;;;;;;;3.90;2.05;;;12.50;99.90;;;14.07;74.83;100267.03;4920884;29;20020;-85
2021/05/25 12:36:31;;;;;;;2.63;1.95;;;12.70;99.90;;;14.24;74.23;100258.72;4923423;29;20361;-84
2021/05/25 12:39:06;;;;;;;5.60;2.58;;;13.10;99.90;;;15.30;76.64;100269.59;4925858;29;20028;-84
2021/05/25 12:41:47;;;;;;;4.13;2.60;;;13.70;99.90;;;15.94;70.25;100262.03;4922397;29;20091;-84
2021/05/25 12:44:20;;;;;;;9.95;2.45;;;14.30;99.90;;;16.27;70.49;100269.22;4923677;29;20032;-84
2021/05/25 12:47:06;;;;;;;5.47;2.70;;;14.70;99.90;;;16.71;70.32;100271.53;4921457;29;20032;-84
2021/05/25 12:49:34;;;;;;;5.18;2.67;;;15.10;99.90;;;16.84;65.97;100276.31;4921008;29;20035;-84
2021/05/25 12:52:26;;;;;;;8.48;3.40;;;15.20;99.90;;;16.58;65.25;100285.28;4922869;29;20047;-82
2021/05/25 12:55:06;;;;;;;7.13;3.00;;;15.00;99.90;;;16.02;67.74;100277.69;4921068;29;20032;-89
2021/05/25 12:57:53;;;;;;;6.43;3.40;;;14.70;99.90;;;15.75;67.27;100277.34;4921645;29;20476;-87
2021/05/25 13:00:38;;;;;;;7.05;3.00;;;14.50;99.90;;;14.87;69.48;100285.56;4925787;29;20171;-86
2021/05/25 13:03:23;;;;;;;5.30;2.80;;;13.90;99.90;;;14.56;72.51;100294.66;4922320;29;20028;-88
2021/05/25 13:05:52;;;;;;;7.70;3.53;;;13.40;99.90;;;14.26;73.40;100326.53;4923664;29;20035;-88
2021/05/25 13:08:32;;;;;;;8.85;2.30;;;13.00;99.90;;;13.41;76.12;100335.44;4923493;29;20024;-87
2021/05/25 13:11:08;;;;;;;3.55;1.73;;;12.30;99.90;;;12.65;77.72;100360.88;4928890;28;20040;-86
2021/05/25 13:13:45;;;;;;;3.70;1.08;;;11.60;99.90;;;11.93;77.36;100349.00;4931345;29;20033;-87
2021/05/25 13:16:29;;;;;;;2.55;1.20;;;10.90;99.90;;;11.24;79.94;100350.09;4919961;29;20035;-89
2021/05/25 13:18:56;;;;;;;1.95;1.17;;;10.30;99.90;;;11.23;79.84;100361.66;4921108;29;20099;-87
2021/05/25 13:21:26;;;;;;;3.95;1.30;;;10.00;99.90;;;11.00;83.13;100359.59;4916919;29;20400;-87
2021/05/25 13:24:03;;;;;;;2.47;1.13;;;9.70;99.90;;;10.98;82.04;100350.00;4917724;29;20032;-87
2021/05/25 13:26:37;;;;;;;2.67;1.48;;;9.60;99.90;;;11.06;83.51;100341.38;4928374;29;20099;-86
2021/05/25 13:29:19;;;;;;;3.97;1.38;;;9.60;99.90;;;10.99;83.56;100341.22;4932219;29;20028;-86
2021/05/25 13:31:50;;;;;;;6.07;1.42;;;9.60;99.90;;;10.92;83.07;100332.69;4930263;29;20039;-89
2021/05/25 13:34:21;;;;;;;2.70;1.30;;;9.60;99.90;;;10.81;82.73;100328.06;4927462;29;20028;-86
2021/05/25 13:36:53;;;;;;;5.93;1.58;;;9.60;99.90;;;11.05;82.26;100350.09;4917160;29;20028;-87
2021/05/25 13:39:20;;;;;;;3.92;1.48;;;9.70;99.90;;;11.02;82.67;100351.66;4917662;29;20029;-88
2021/05/25 13:41:49;;;;;;;4.13;2.08;;;9.70;99.90;;;11.12;83.04;100361.44;4918731;29;20083;-84
2021/05/25 13:44:17;;;;;;;5.30;2.30;;;9.90;99.90;;;11.34;82.26;100354.28;4917616;29;20032;-87
2021/05/25 13:46:44;;;;;;;6.03;2.38;;;10.00;99.90;;;11.57;82.45;100366.31;4916783;29;20032;-88
2021/05/25 13:49:11;;;;;;;7.13;1.83;;;10.20;99.90;;;11.68;81.64;100356.13;4917232;29;20082;-86
2021/05/25 13:51:38;;;;;;;4.15;2.38;;;10.50;99.90;;;11.89;81.98;100369.69;4919281;29;20084;-87
2021/05/25 13:54:07;;;;;;;3.20;2.10;;;10.60;99.90;;;12.08;79.54;100359.22;4919534;29;20029;-87
2021/05/25 13:59:11;;;;;;;5.13;2.15;;;11.10;99.90;;;12.39;78.68;100363.72;4922328;29;20051;-87
2021/05/25 14:01:38;;;;;;;3.05;2.03;;;11.30;99.90;;;12.95;78.32;100371.28;4920318;29;20095;-87
2021/05/25 14:04:05;;;;;;;4.70;1.90;;;11.60;99.90;;;13.03;76.04;100365.44;4919296;29;20035;-85
2021/05/25 14:06:33;;;;;;;4.60;1.75;;;11.80;99.90;;;13.29;76.75;100358.16;4927456;28;20024;-85
2021/05/25 14:08:59;;;;;;;4.45;1.50;;;12.00;99.90;;;12.83;76.58;100371.53;4941769;28;20032;-84
2021/05/25 14:11:26;;;;;;;4.10;1.63;;;11.90;99.90;;;12.83;76.55;100366.75;4942734;29;20498;-89
2021/05/25 14:13:53;;;;;;;3.83;1.80;;;11.70;99.90;;;12.55;77.29;100375.56;4940556;29;20039;-84
2021/05/25 14:16:19;;;;;;;4.00;2.08;;;11.50;99.90;;;12.52;78.97;100376.31;4940242;29;20487;-87
2021/05/25 14:18:45;;;;;;;3.90;1.60;;;11.50;99.90;;;12.61;77.90;100378.84;4940859;29;20303;-86
2021/05/25 14:21:11;;;;;;;3.35;1.75;;;11.40;99.90;;;12.62;79.83;100383.25;4937419;29;20035;-87
2021/05/25 14:23:39;;;;;;;2.28;1.55;;;11.30;99.90;;;12.67;79.74;100380.94;4936787;29;20035;-88
2021/05/25 14:26:05;;;;;;;5.03;1.88;;;11.20;99.90;;;12.65;78.98;100376.88;4936654;29;20035;-87
2021/05/25 14:28:34;;;;;;;19.17;2.45;;;11.30;99.90;;;12.51;79.92;100385.09;4935812;29;20031;-87
2021/05/25 14:31:00;;;;;;;2.80;1.70;;;11.10;99.90;;;12.65;80.12;100385.28;4936988;29;20036;-89
2021/05/25 14:33:26;;;;;;;3.88;2.00;;;11.10;99.90;;;12.53;81.03;100369.53;4936576;29;20038;-88
2021/05/25 14:35:52;;;;;;;3.55;1.92;;;10.90;99.90;;;12.27;81.73;100368.72;4936032;29;20075;-86
2021/05/25 14:38:21;;;;;;;2.85;1.90;;;10.80;99.90;;;12.26;82.41;100370.72;4935620;29;20450;-87
2021/05/25 14:40:48;;;;;;;3.67;1.60;;;10.70;99.90;;;12.19;82.32;100361.41;4936379;29;20032;-86
2021/05/25 14:43:17;;;;;;;3.22;1.98;;;10.70;99.90;;;12.32;82.47;100358.03;4932619;29;20103;-87
2021/05/25 14:45:45;;;;;;;5.40;2.22;;;10.70;99.90;;;12.54;83.33;100354.34;4922705;29;20123;-87
2021/05/25 14:48:12;;;;;;;4.90;2.17;;;10.90;99.90;;;12.52;83.17;100345.50;4937243;29;20432;-85
2021/05/25 14:50:42;;;;;;;4.95;2.08;;;11.10;99.90;;;13.20;79.12;100348.00;4939596;29;20440;-86
2021/05/25 14:53:27;;;;;;;5.32;2.00;;;11.50;99.90;;;14.16;78.85;100335.69;4938566;29;20114;-87
2021/05/25 14:56:38;;;;;;;4.38;2.30;;;12.20;99.90;;;14.83;75.18;100338.16;4939485;29;20117;-85
2021/05/25 14:58:47;;;;;;;4.90;1.73;;;12.80;99.90;;;15.17;73.14;100338.69;4936009;29;20051;-84
2021/05/25 15:01:17;;;;;;;3.47;1.65;;;13.10;99.90;;;14.95;71.46;100328.56;4937583;29;20187;-86
2021/05/25 15:03:49;;;;;;;3.92;1.23;;;13.10;99.90;;;14.66;72.02;100333.25;4940099;29;20054;-86
2021/05/25 15:06:28;;;;;;;5.43;1.17;;;13.00;99.90;;;14.19;71.90;100328.53;4940558;29;20484;-87
2021/05/25 15:08:57;;;;;;;3.55;1.85;;;12.70;99.90;;;14.12;74.16;100332.06;4940018;29;20498;-86
2021/05/25 15:11:25;;;;;;;3.53;1.40;;;12.60;99.90;;;14.08;76.52;100328.44;4939147;29;20633;-85
2021/05/25 15:13:51;;;;;;;3.50;1.23;;;12.70;99.90;;;14.76;73.93;100332.50;4940432;29;20039;-83
2021/05/25 15:16:18;;;;;;;3.20;1.48;;;13.00;99.90;;;14.81;70.70;100325.69;4941590;29;20054;-87
2021/05/25 15:18:47;;;;;;;2.60;1.00;;;13.30;99.90;;;14.76;68.03;100324.88;4939087;29;20019;-86
2021/05/25 15:21:18;;;;;;;4.65;1.00;;;13.40;99.90;;;14.72;67.91;100332.50;4929692;28;20129;-86
2021/05/25 15:23:46;;;;;;;4.32;0.80;;;13.40;99.90;;;14.47;68.41;100327.91;4935301;29;20090;-87
2021/05/25 15:26:12;;;;;;;3.97;1.08;;;13.20;99.90;;;14.29;65.90;100332.59;4938898;29;20059;-86
2021/05/25 15:28:40;;;;;;;4.28;1.58;;;13.10;99.90;;;13.86;66.02;100326.66;4939175;29;20110;-87
2021/05/25 15:31:06;;;;;;;2.38;0.80;;;12.80;99.90;;;13.57;68.19;100328.38;4938224;29;20027;-85
2021/05/25 15:33:31;;;;;;;5.28;1.38;;;12.60;99.90;;;13.39;69.06;100321.78;4938015;29;20464;-86
2021/05/25 15:35:58;;;;;;;4.25;1.10;;;12.40;99.90;;;13.64;68.31;100319.22;4939318;29;20031;-86
2021/05/25 15:38:28;;;;;;;2.63;0.80;;;12.50;99.90;;;13.26;69.45;100320.44;4939299;29;20149;-90
2021/05/25 15:40:56;;;;;;;2.83;0.82;;;12.30;99.90;;;13.48;69.47;100324.28;4938530;29;20047;-86
2021/05/25 15:43:22;;;;;;;1.95;0.52;;;12.30;99.90;;;13.55;68.14;100327.16;4936901;29;20032;-86
2021/05/25 15:45:52;;;;;;;2.45;0.80;;;12.40;99.90;;;13.48;68.64;100324.28;4938369;29;20039;-87
2021/05/25 15:48:21;;;;;;;7.30;1.15;;;12.30;99.90;;;13.62;69.78;100330.03;4940223;29;20027;-86
2021/05/25 15:50:48;;;;;;;2.25;0.70;;;12.30;99.90;;;13.24;70.20;100336.03;4942086;29;20442;-88
2021/05/25 15:53:27;;;;;;;2.22;1.15;;;12.10;99.90;;;13.08;70.56;100336.22;4941785;29;20028;-86
2021/05/25 15:55:54;;;;;;;2.20;0.77;;;11.90;99.90;;;12.95;71.39;100351.69;4940107;29;20031;-87
2021/05/25 15:58:21;;;;;;;5.60;1.13;;;11.70;99.90;;;12.80;73.57;100363.91;4939671;29;20031;-86
2021/05/25 16:00:50;;;;;;;6.70;1.20;;;11.50;99.90;;;12.51;74.27;100369.09;4939666;29;20067;-86
2021/05/25 16:03:16;;;;;;;1.45;0.73;;;11.40;99.90;;;12.11;77.23;100372.47;4939607;29;20078;-88
2021/05/25 16:05:42;;;;;;;1.25;0.85;;;11.00;99.90;;;11.99;77.64;100371.88;4939215;29;20032;-88
2021/05/25 16:08:11;;;;;;;2.08;0.50;;;10.90;99.90;;;11.78;80.25;100369.53;4957057;29;20015;-88
2021/05/25 16:10:37;;;;;;;1.30;0.73;;;10.60;99.90;;;11.82;80.47;100378.78;4929715;29;20067;-87
2021/05/25 16:13:04;;;;;;;3.70;0.85;;;10.50;99.90;;;11.54;82.23;100369.84;4929152;28;20142;-86
2021/05/25 16:15:32;;;;;;;3.97;1.05;;;10.40;99.90;;;11.57;82.04;100361.53;4930909;29;20052;-85
2021/05/25 16:17:57;;;;;;;2.33;1.10;;;10.30;99.90;;;11.67;81.65;100373.28;4943646;29;20023;-86
2021/05/25 16:20:26;;;;;;;1.58;0.80;;;10.30;99.90;;;11.41;82.63;100366.41;4946115;29;20032;-86
2021/05/25 16:22:56;;;;;;;5.05;0.70;;;10.20;99.90;;;11.39;82.77;100365.16;4947898;29;20035;-88
2021/05/25 16:25:34;;;;;;;1.75;0.68;;;10.20;99.90;;;11.53;82.22;100362.63;4947586;29;20027;-87
2021/05/25 16:28:08;;;;;;;1.88;0.50;;;10.20;99.90;;;11.29;81.99;100366.59;4956883;29;20044;-87
2021/05/25 16:30:35;;;;;;;0.50;0.40;;;10.10;99.90;;;11.15;82.92;100365.47;4944368;29;20035;-89
2021/05/25 16:33:03;;;;;;;1.48;0.40;;;10.00;99.90;;;11.20;83.51;100363.22;4945607;29;20035;-88
2021/05/25 16:35:31;;;;;;;2.10;0.73;;;10.00;99.90;;;11.24;83.27;100352.88;4943614;29;20095;-88
2021/05/25 16:38:00;;;;;;;2.10;0.60;;;10.00;99.90;;;11.18;84.53;100353.56;4943526;29;20031;-85
2021/05/25 16:40:27;;;;;;;2.72;0.60;;;10.00;99.90;;;11.23;83.48;100354.09;4942738;29;20119;-88
2021/05/25 16:42:55;;;;;;;1.38;0.77;;;10.00;99.90;;;11.45;84.17;100347.72;4945275;29;20051;-88
2021/05/25 16:45:22;;;;;;;1.95;0.80;;;10.10;99.90;;;11.26;84.82;100358.94;4947172;29;20064;-88
2021/05/25 16:47:49;;;;;;;3.03;0.80;;;10.20;99.90;;;11.55;83.87;100363.06;4944988;29;20039;-89
2021/05/25 16:50:15;;;;;;;3.13;1.00;;;10.20;99.90;;;11.56;83.46;100356.28;4944623;29;20032;-88
2021/05/25 16:52:46;;;;;;;3.22;1.30;;;10.20;99.90;;;11.71;84.52;100349.00;4941601;29;20035;-88
2021/05/25 16:55:20;;;;;;;4.43;1.17;;;10.20;99.90;;;11.47;83.99;100350.94;4939975;29;20032;-86
2021/05/25 16:57:47;;;;;;;3.28;1.33;;;10.30;99.90;;;11.30;85.30;100339.44;4937589;29;20034;-87
2021/05/25 17:00:33;;;;;;;3.90;1.33;;;10.20;99.90;;;11.36;84.88;100347.16;4935787;29;20024;-88
2021/05/25 17:14:07;;;;;;;9.13;1.83;;;10.20;99.90;;;11.41;86.18;100351.63;4943565;29;20179;-88
2021/05/25 17:19:17;;;;;;;10.70;1.80;;;10.20;99.90;;;11.43;86.60;100350.06;4942443;29;20039;-87
2021/05/25 17:21:43;;;;;;;4.78;1.55;;;10.30;99.90;;;11.41;85.99;100354.41;4941291;29;20028;-85
2021/05/25 17:24:12;;;;;;;3.65;1.70;;;10.30;99.90;;;11.27;85.79;100359.75;4942501;29;20075;-87
2021/05/25 17:26:50;;;;;;;4.47;1.50;;;10.20;99.90;;;11.33;86.28;100352.66;4941923;29;20039;-90
2021/05/25 17:29:19;;;;;;;6.40;1.65;;;10.20;99.90;;;11.30;85.56;100359.78;4944226;29;20035;-88
2021/05/25 17:31:48;;;;;;;4.68;1.92;;;10.20;99.90;;;11.40;85.74;100361.16;4945206;29;20102;-88
2021/05/25 17:34:14;;;;;;;9.02;2.22;;;10.00;99.90;;;11.16;86.87;100350.31;4943309;29;20036;-90
2021/05/25 17:36:41;;;;;;;3.63;1.70;;;10.10;99.90;;;11.33;86.71;100349.88;4962830;28;20040;-88
2021/05/25 17:39:11;;;;;;;4.05;1.48;;;10.00;99.90;;;11.29;86.68;100361.00;4948487;29;20031;-87
2021/05/25 17:41:40;;;;;;;4.57;1.98;;;10.10;99.90;;;11.25;87.49;100354.50;4947181;29;20035;-88
2021/05/25 17:44:06;;;;;;;4.47;1.65;;;10.10;99.90;;;11.40;86.45;100361.16;4944366;29;20365;-88
2021/05/25 17:46:34;;;;;;;4.85;1.85;;;10.10;99.90;;;11.38;86.58;100355.97;4942114;29;20058;-88
2021/05/25 17:49:06;;;;;;;4.22;1.75;;;10.10;99.90;;;11.48;86.83;100368.53;4943804;29;20040;-86
2021/05/25 17:51:39;;;;;;;2.53;1.60;;;10.10;99.90;;;11.34;86.89;100371.03;4944978;29;20108;-89
2021/05/25 17:54:09;;;;;;;4.05;1.85;;;10.10;99.90;;;11.26;86.96;100369.31;4943570;29;20032;-87
2021/05/25 17:56:37;;;;;;;3.13;1.50;;;10.00;99.90;;;11.14;86.38;100366.66;4940517;29;20023;-86
2021/05/25 17:59:04;;;;;;;4.72;1.40;;;10.00;99.90;;;11.10;86.29;100361.00;4942638;29;20027;-87
2021/05/25 18:01:31;;;;;;;5.97;1.90;;;10.00;99.90;;;11.29;86.13;100360.19;4943322;29;20051;-87
2021/05/25 18:03:57;;;;;;;4.50;1.70;;;10.00;99.90;;;11.09;86.25;100371.38;4942135;29;20066;-88
2021/05/25 18:06:31;;;;;;;2.83;1.45;;;10.00;99.90;;;11.24;86.22;100366.06;4942137;29;20029;-88
2021/05/25 18:08:58;;;;;;;3.88;1.27;;;9.90;99.90;;;11.11;86.07;100369.00;4942065;29;20058;-88
2021/05/25 18:11:25;;;;;;;4.13;1.45;;;9.90;99.90;;;10.89;87.54;100364.16;4944884;29;20063;-86
2021/05/25 18:13:52;;;;;;;2.92;1.40;;;9.90;99.90;;;11.09;86.18;100365.78;4943191;29;20042;-87
2021/05/25 18:16:18;;;;;;;3.42;1.30;;;9.80;99.90;;;10.95;86.35;100353.50;4939816;29;20028;-87
2021/05/25 18:18:43;;;;;;;2.35;1.38;;;9.80;99.90;;;10.98;86.96;100358.38;4954741;23;20035;-87
2021/05/25 18:21:11;;;;;;;3.78;2.05;;;9.70;99.90;;;10.97;87.00;100368.72;4942248;29;20035;-84
2021/05/25 18:23:38;;;;;;;3.65;1.80;;;9.70;99.90;;;10.97;87.17;100371.53;4961154;29;20496;-86
2021/05/25 18:26:04;;;;;;;2.80;1.38;;;9.70;99.90;;;10.84;87.92;100366.44;4959614;29;20023;-84
2021/05/25 18:28:30;;;;;;;5.95;1.38;;;9.60;99.90;;;10.83;87.81;100362.00;4956178;29;20032;-87
2021/05/25 18:33:37;;;;;;;6.05;2.10;;;9.60;99.90;;;10.83;88.06;100354.44;4949747;29;20055;-85
2021/05/25 18:44:13;;;;;;;4.22;1.98;;;9.60;99.90;;;10.86;88.46;100366.88;4925523;29;20038;-88
2021/05/25 18:46:39;;;;;;;4.55;1.73;;;9.60;99.90;;;10.87;88.36;100374.09;4927604;29;20028;-85
2021/05/25 18:49:05;;;;;;;3.55;2.17;;;9.60;99.90;;;10.79;88.77;100375.91;4927661;29;20028;-80
2021/05/25 18:51:39;;;;;;;6.47;2.58;;;9.50;99.90;;;10.70;89.40;100371.72;4944462;28;20099;-89
2021/05/25 18:54:06;;;;;;;5.03;2.30;;;9.50;99.90;;;10.64;89.99;100375.97;4962955;29;20036;-85
2021/05/25 18:56:32;;;;;;;4.63;2.50;;;9.50;99.90;;;10.53;90.65;100375.75;4956338;29;20038;-85
2021/05/25 19:01:29;;;;;;;5.18;2.58;;;9.50;99.90;;;10.66;90.14;100370.84;4942494;29;20043;-85
2021/05/25 19:03:57;;;;;;;4.93;2.00;;;9.50;99.90;;;10.67;90.15;100380.81;4956804;29;20047;-85
2021/05/25 19:06:22;;;;;;;5.20;2.40;;;9.50;99.90;;;10.72;89.85;100388.94;4940522;29;20122;-87
2021/05/25 19:08:49;;;;;;;5.28;2.33;;;9.50;99.90;;;10.75;90.02;100389.00;4941268;29;20185;-86
2021/05/25 19:11:16;;;;;;;8.57;2.80;;;9.50;99.90;;;10.67;89.69;100390.00;4924679;29;20028;-82
2021/05/25 19:13:43;;;;;;;5.28;2.47;;;9.50;99.90;;;10.70;89.31;100389.28;4920957;29;20037;-84
2021/05/25 19:16:15;;;;;;;4.38;2.33;;;9.50;99.90;;;10.68;89.73;100391.63;4920540;29;20051;-82
2021/05/25 19:18:43;;;;;;;4.35;2.38;;;9.50;99.90;;;10.71;89.91;100392.88;4919716;29;20028;-82
2021/05/25 19:23:54;;;;;;;7.57;2.58;;;9.50;99.90;;;10.77;89.71;100392.25;4926302;29;20024;-81
2021/05/25 19:26:29;;;;;;;7.43;2.42;;;9.60;99.90;;;10.64;89.89;100396.31;4933371;29;20063;-82
2021/05/25 19:28:57;;;;;;;4.57;2.45;;;9.50;99.90;;;10.59;90.09;100397.41;4943362;29;20034;-82
2021/05/25 19:31:24;;;;;;;6.03;2.60;;;9.50;99.90;;;10.65;90.11;100394.34;4942280;29;20031;-83
2021/05/25 19:33:50;;;;;;;6.40;2.50;;;9.50;99.90;;;10.69;90.38;100403.63;4941196;29;20483;-83
2021/05/25 19:36:19;;;;;;;3.85;2.30;;;9.50;99.90;;;10.73;89.50;100405.31;4943182;29;20050;-83
2021/05/25 19:38:51;;;;;;;4.20;2.72;;;9.50;99.90;;;10.66;90.00;100407.16;4941906;29;20028;-83
2021/05/25 19:41:21;;;;;;;5.93;3.10;;;9.50;99.90;;;10.55;90.49;100406.91;4944030;29;20510;-86
2021/05/25 19:43:51;;;;;;;6.38;2.35;;;9.50;99.90;;;10.68;90.13;100410.38;4959834;29;20047;-82
2021/05/25 19:46:18;;;;;;;6.35;2.97;;;9.50;99.90;;;10.61;90.73;100410.22;4945272;29;20046;-87
2021/05/25 19:48:45;;;;;;;4.40;2.80;;;9.50;99.90;;;10.64;90.28;100415.06;4942471;29;20035;-87
2021/05/25 19:51:12;;;;;;;6.03;2.83;;;9.50;99.90;;;10.56;90.23;100417.69;4944042;29;20036;-81
2021/05/25 19:53:38;;;;;;;4.65;2.70;;;9.50;99.90;;;10.61;90.71;100413.81;4942239;29;20140;-82
2021/05/25 19:56:04;;;;;;;7.55;3.00;;;9.50;99.90;;;10.70;90.16;100416.41;4949023;29;20028;-83
2021/05/25 19:58:31;;;;;;;8.32;2.85;;;9.50;99.90;;;10.63;90.01;100419.84;4962792;29;20031;-82